createdAt,value
2023-02-18T00:01:45.842Z,24.03
2023-02-18T00:04:13.850Z,18.03
2023-02-18T00:06:41.807Z,29.20
2023-02-18T00:09:12.514Z,24.07
2023-02-18T00:11:40.711Z,24.40
2023-02-18T00:14:12.161Z,25.97
2023-02-18T00:16:40.289Z,22.50
2023-02-18T00:19:11.170Z,21.00
2023-02-18T00:21:39.560Z,24.37
2023-02-18T00:24:08.954Z,21.60
2023-02-18T00:26:38.261Z,21.20
2023-02-18T00:29:06.106Z,26.50
2023-02-18T00:31:36.125Z,19.57
2023-02-18T00:34:05.741Z,20.53
2023-02-18T00:36:34.367Z,25.30
2023-02-18T00:39:04.862Z,25.27
2023-02-18T00:41:33.377Z,20.07
2023-02-18T00:44:02.770Z,23.80
2023-02-18T00:46:31.070Z,22.37
2023-02-18T00:48:58.937Z,23.50
2023-02-18T00:51:26.969Z,22.17
2023-02-18T00:53:55.435Z,20.10
2023-02-18T00:56:23.504Z,23.50
2023-02-18T00:58:52.150Z,18.67
2023-02-18T01:01:22.071Z,23.23
2023-02-18T01:03:49.943Z,19.13
2023-02-18T01:06:17.834Z,31.07
2023-02-18T01:08:45.906Z,24.20
2023-02-18T01:11:14.530Z,21.20
2023-02-18T01:13:43.200Z,23.43
2023-02-18T01:16:15.250Z,26.93
2023-02-18T01:18:44.771Z,21.90
2023-02-18T01:21:12.844Z,24.17
2023-02-18T01:23:42.862Z,24.63
2023-02-18T01:26:11.826Z,27.87
2023-02-18T01:28:40.760Z,23.77
2023-02-18T01:31:10.944Z,21.33
2023-02-18T01:33:39.158Z,31.00
2023-02-18T01:36:10.165Z,19.37
2023-02-18T01:38:38.699Z,26.20
2023-02-18T01:41:07.451Z,22.17
2023-02-18T01:43:35.868Z,20.43
2023-02-18T01:46:13.637Z,23.00
2023-02-18T01:48:45.265Z,22.57
2023-02-18T01:51:18.298Z,20.97
2023-02-18T01:53:53.628Z,21.33
2023-02-18T01:56:27.246Z,23.23
2023-02-18T01:58:58.066Z,18.83
2023-02-18T02:01:27.923Z,21.60
2023-02-18T02:03:55.958Z,21.63
2023-02-18T02:06:26.764Z,21.20
2023-02-18T02:09:04.399Z,19.70
2023-02-18T02:11:59.715Z,17.03
2023-02-18T02:14:41.985Z,24.27
2023-02-18T02:17:17.982Z,22.13
2023-02-18T02:20:24.409Z,25.63
2023-02-18T02:23:35.813Z,23.77
2023-02-18T02:26:33.464Z,23.67
2023-02-18T02:29:18.519Z,26.10
2023-02-18T02:32:15.092Z,20.43
2023-02-18T02:34:53.066Z,17.70
2023-02-18T02:37:28.188Z,18.67
2023-02-18T02:40:06.196Z,21.83
2023-02-18T02:42:46.461Z,18.67
2023-02-18T02:45:25.127Z,20.03
2023-02-18T02:48:02.138Z,21.63
2023-02-18T02:50:38.884Z,17.17
2023-02-18T02:53:15.928Z,16.40
2023-02-18T02:55:43.942Z,15.27
2023-02-18T02:58:17.507Z,16.73
2023-02-18T03:01:02.365Z,18.70
2023-02-18T03:03:57.719Z,21.07
2023-02-18T03:06:45.654Z,16.70
2023-02-18T03:09:21.484Z,15.63
2023-02-18T03:11:59.813Z,17.70
2023-02-18T03:14:31.673Z,14.93
2023-02-18T03:17:03.247Z,21.53
2023-02-18T03:19:36.276Z,17.83
2023-02-18T03:22:10.100Z,17.27
2023-02-18T03:24:41.648Z,23.00
2023-02-18T03:27:16.402Z,18.30
2023-02-18T03:29:47.733Z,13.73
2023-02-18T03:32:19.682Z,19.73
2023-02-18T03:34:51.664Z,15.00
2023-02-18T03:37:21.712Z,16.47
2023-02-18T03:39:53.797Z,21.30
2023-02-18T03:42:26.119Z,15.23
2023-02-18T03:44:54.104Z,16.80
2023-02-18T03:47:22.062Z,16.43
2023-02-18T03:49:49.908Z,15.50
2023-02-18T03:52:17.881Z,14.80
2023-02-18T03:54:47.157Z,18.87
2023-02-18T03:57:14.987Z,17.70
2023-02-18T03:59:43.180Z,16.67
2023-02-18T04:02:11.126Z,18.40
2023-02-18T04:04:39.079Z,17.13
2023-02-18T04:07:07.090Z,13.40
2023-02-18T04:09:34.913Z,13.03
2023-02-18T04:12:04.155Z,17.77
2023-02-18T04:14:32.178Z,17.13
2023-02-18T04:16:59.979Z,13.57
2023-02-18T04:19:27.855Z,15.67
2023-02-18T04:21:55.730Z,14.57
2023-02-18T04:24:23.658Z,16.43
2023-02-18T04:26:51.603Z,15.30
2023-02-18T04:29:21.009Z,14.63
2023-02-18T04:31:48.946Z,14.27
2023-02-18T04:34:16.900Z,13.77
2023-02-18T04:36:44.886Z,13.13
2023-02-18T04:39:12.848Z,17.10
2023-02-18T04:41:40.927Z,10.50
2023-02-18T04:44:08.822Z,14.10
2023-02-18T04:46:38.048Z,11.57
2023-02-18T04:49:05.864Z,11.80
2023-02-18T04:51:33.830Z,12.43
2023-02-18T04:54:01.729Z,11.43
2023-02-18T04:56:29.566Z,12.23
2023-02-18T04:58:57.504Z,9.93
2023-02-18T05:01:25.345Z,7.50
2023-02-18T05:03:54.587Z,13.23
2023-02-18T05:06:22.523Z,12.13
2023-02-18T05:08:50.340Z,9.70
2023-02-18T05:11:18.204Z,11.20
2023-02-18T05:13:46.247Z,11.17
2023-02-18T05:16:14.187Z,12.10
2023-02-18T05:18:42.387Z,13.57
2023-02-18T05:21:12.299Z,11.67
2023-02-18T05:23:40.181Z,8.37
2023-02-18T05:26:08.218Z,9.57
2023-02-18T05:28:36.302Z,10.50
2023-02-18T05:31:04.412Z,13.77
2023-02-18T05:33:32.313Z,13.00
2023-02-18T05:36:00.192Z,13.07
2023-02-18T05:38:29.414Z,14.03
2023-02-18T05:40:57.430Z,10.67
2023-02-18T05:43:25.427Z,8.97
2023-02-18T05:45:53.346Z,12.00
2023-02-18T05:48:21.148Z,12.90
2023-02-18T05:50:49.034Z,12.90
2023-02-18T05:53:17.717Z,11.97
2023-02-18T05:55:46.992Z,15.30
2023-02-18T05:58:17.134Z,12.00
2023-02-18T06:00:45.031Z,8.50
2023-02-18T06:03:12.875Z,14.53
2023-02-18T06:05:40.770Z,13.03
2023-02-18T06:08:08.646Z,11.57
2023-02-18T06:10:36.520Z,12.37
2023-02-18T06:13:05.783Z,10.10
2023-02-18T06:15:33.975Z,11.53
2023-02-18T06:18:01.859Z,10.93
2023-02-18T06:20:29.744Z,9.43
2023-02-18T06:22:57.577Z,11.30
2023-02-18T06:25:25.781Z,9.70
2023-02-18T06:27:53.651Z,10.27
2023-02-18T06:30:24.332Z,8.50
2023-02-18T06:32:52.526Z,9.13
2023-02-18T06:35:20.457Z,8.20
2023-02-18T06:37:48.319Z,9.73
2023-02-18T06:40:16.232Z,10.73
2023-02-18T06:42:44.152Z,9.50
2023-02-18T06:45:12.010Z,6.80
2023-02-18T06:47:41.212Z,8.40
2023-02-18T06:50:09.517Z,8.47
2023-02-18T06:52:38.126Z,7.50
2023-02-18T06:55:07.016Z,8.43
2023-02-18T06:57:35.224Z,7.40
2023-02-18T07:00:03.152Z,8.10
2023-02-18T07:02:30.907Z,8.63
2023-02-18T07:05:00.345Z,13.43
2023-02-18T07:07:28.183Z,8.47
2023-02-18T07:09:56.018Z,9.60
2023-02-18T07:12:23.966Z,9.37
2023-02-18T07:14:51.861Z,7.47
2023-02-18T07:17:19.994Z,7.97
2023-02-18T07:19:48.179Z,6.17
2023-02-18T07:22:17.389Z,7.03
2023-02-18T07:24:45.539Z,10.13
2023-02-18T07:27:13.569Z,11.23
2023-02-18T07:29:41.404Z,10.23
2023-02-18T07:32:09.286Z,7.17
2023-02-18T07:34:37.346Z,8.63
2023-02-18T07:37:09.267Z,9.33
2023-02-18T07:39:41.379Z,10.30
2023-02-18T07:42:09.841Z,8.93
2023-02-18T07:44:38.397Z,9.20
2023-02-18T07:47:08.406Z,11.17
2023-02-18T07:49:36.457Z,8.43
2023-02-18T07:52:05.483Z,10.63
2023-02-18T07:54:33.576Z,10.07
2023-02-18T07:57:02.890Z,10.80
2023-02-18T07:59:30.930Z,9.20
2023-02-18T08:01:58.937Z,9.10
2023-02-18T08:04:26.971Z,8.97
2023-02-18T08:06:55.080Z,9.77
2023-02-18T08:09:23.037Z,10.80
2023-02-18T08:11:51.182Z,12.93
2023-02-18T08:14:20.604Z,8.10
2023-02-18T08:16:48.725Z,18.10
2023-02-18T08:19:16.798Z,10.63
2023-02-18T08:21:44.663Z,8.93
2023-02-18T08:24:12.774Z,11.43
2023-02-18T08:26:48.667Z,8.67
2023-02-18T08:29:28.720Z,7.93
2023-02-18T08:31:57.418Z,9.73
2023-02-18T08:34:25.336Z,10.13
2023-02-18T08:36:53.303Z,10.07
2023-02-18T08:39:21.210Z,11.03
2023-02-18T08:41:49.159Z,10.83
2023-02-18T08:44:17.202Z,9.77
2023-02-18T08:46:48.207Z,10.57
2023-02-18T08:49:16.174Z,10.27
2023-02-18T08:51:44.606Z,8.07
2023-02-18T08:54:12.436Z,10.93
2023-02-18T08:56:40.737Z,9.73
2023-02-18T08:59:08.733Z,9.70
2023-02-18T09:01:37.124Z,8.90
2023-02-18T09:04:06.695Z,9.00
2023-02-18T09:06:38.821Z,10.27
2023-02-18T09:09:07.288Z,12.93
2023-02-18T09:11:35.568Z,10.37
2023-02-18T09:14:04.123Z,11.00
2023-02-18T09:16:32.062Z,11.17
2023-02-18T09:19:00.111Z,12.83
2023-02-18T09:21:29.833Z,14.30
2023-02-18T09:23:57.679Z,11.87
2023-02-18T09:26:27.329Z,9.87
2023-02-18T09:28:56.546Z,13.43
2023-02-18T09:31:26.497Z,11.40
2023-02-18T09:33:56.820Z,11.70
2023-02-18T09:36:32.503Z,11.03
2023-02-18T09:39:01.019Z,10.57
2023-02-18T09:41:38.809Z,12.80
2023-02-18T09:44:12.730Z,11.40
2023-02-18T09:46:44.476Z,12.93
2023-02-18T09:49:18.425Z,13.80
2023-02-18T09:51:48.141Z,13.27
2023-02-18T09:54:19.917Z,11.40
2023-02-18T09:56:49.073Z,10.37
2023-02-18T09:59:20.010Z,11.33
2023-02-18T10:01:52.106Z,12.40
2023-02-18T10:04:25.186Z,10.13
2023-02-18T10:06:55.853Z,11.77
2023-02-18T10:09:27.084Z,11.03
2023-02-18T10:11:58.458Z,15.03
2023-02-18T10:14:27.619Z,12.57
2023-02-18T10:16:55.678Z,12.67
2023-02-18T10:19:29.019Z,11.27
2023-02-18T10:21:59.041Z,10.23
2023-02-18T10:24:31.532Z,10.23
2023-02-18T10:27:00.771Z,10.77
2023-02-18T10:29:32.281Z,11.63
2023-02-18T10:32:09.869Z,10.63
2023-02-18T10:34:42.771Z,9.50
2023-02-18T10:37:30.270Z,10.13
2023-02-18T10:40:11.795Z,9.60
2023-02-18T10:42:53.009Z,9.43
2023-02-18T10:45:32.900Z,9.53
2023-02-18T10:48:18.545Z,8.93
2023-02-18T10:50:47.720Z,8.83
2023-02-18T10:53:23.659Z,8.37
2023-02-18T10:55:54.542Z,7.83
2023-02-18T10:58:28.353Z,7.63
2023-02-18T11:00:56.759Z,7.50
2023-02-18T11:03:26.710Z,8.43
2023-02-18T11:05:57.550Z,7.47
2023-02-18T11:08:30.157Z,7.63
2023-02-18T11:10:59.338Z,7.50
2023-02-18T11:13:28.808Z,7.73
2023-02-18T11:15:59.342Z,7.77
2023-02-18T11:18:37.310Z,7.40
2023-02-18T11:21:08.189Z,8.27
2023-02-18T11:23:48.386Z,8.10
2023-02-18T11:26:18.857Z,8.73
2023-02-18T11:28:49.191Z,9.03
2023-02-18T11:31:23.348Z,9.03
2023-02-18T11:33:54.360Z,8.20
2023-02-18T11:36:27.250Z,7.87
2023-02-18T11:39:04.417Z,8.07
2023-02-18T11:41:36.592Z,8.17
2023-02-18T11:44:07.310Z,7.43
2023-02-18T11:46:35.625Z,7.50
2023-02-18T11:49:23.356Z,7.23
2023-02-18T11:51:52.042Z,6.93
2023-02-18T11:54:30.372Z,6.97
2023-02-18T11:57:01.127Z,6.97
2023-02-18T11:59:36.411Z,5.63
2023-02-18T12:02:23.451Z,3.83
2023-02-18T12:04:57.669Z,3.30
2023-02-18T12:07:31.882Z,1.63
2023-02-18T12:10:09.372Z,2.03
2023-02-18T12:12:45.039Z,1.40
2023-02-18T12:15:17.948Z,1.40
2023-02-18T12:18:21.988Z,0.80
2023-02-18T12:21:19.244Z,1.60
2023-02-18T12:23:58.037Z,1.37
2023-02-18T12:26:30.895Z,1.07
2023-02-18T12:29:28.869Z,1.53
2023-02-18T12:32:20.819Z,1.93
2023-02-18T12:34:59.046Z,1.53
2023-02-18T12:37:45.356Z,1.77
2023-02-18T12:40:31.382Z,2.80
2023-02-18T12:43:13.145Z,3.43
2023-02-18T12:45:55.276Z,3.10
2023-02-18T12:48:39.749Z,5.13
2023-02-18T12:51:20.005Z,4.70
2023-02-18T12:54:13.679Z,5.43
2023-02-18T12:57:06.077Z,7.77
2023-02-18T13:00:11.940Z,6.73
2023-02-18T13:03:18.761Z,8.87
2023-02-18T13:05:58.435Z,6.43
2023-02-18T13:08:40.458Z,8.23
2023-02-18T13:11:35.704Z,10.23
2023-02-18T13:14:11.021Z,7.77
2023-02-18T13:16:40.916Z,8.03
2023-02-18T13:19:20.394Z,11.97
2023-02-18T13:21:50.882Z,11.47
2023-02-18T13:24:27.480Z,13.40
2023-02-18T13:27:02.852Z,12.10
2023-02-18T13:29:35.856Z,16.17
2023-02-18T13:32:14.508Z,18.53
2023-02-18T13:34:52.583Z,16.13
2023-02-18T13:37:26.997Z,15.50
2023-02-18T13:39:57.486Z,13.67
2023-02-18T13:42:35.097Z,15.37
2023-02-18T13:45:33.966Z,12.07
2023-02-18T13:48:02.737Z,10.53
2023-02-18T13:50:43.175Z,9.97
2023-02-18T13:53:20.936Z,10.03
2023-02-18T13:55:55.149Z,7.83
2023-02-18T13:58:26.833Z,8.40
2023-02-18T14:01:00.401Z,9.97
2023-02-18T14:03:54.458Z,8.00
2023-02-18T14:06:26.016Z,10.73
2023-02-18T14:09:05.565Z,8.40
2023-02-18T14:11:47.868Z,6.30
2023-02-18T14:14:32.521Z,7.87
2023-02-18T14:17:38.545Z,8.30
2023-02-18T14:20:45.393Z,5.97
2023-02-18T14:23:43.449Z,4.53
2023-02-18T14:26:20.365Z,3.83
2023-02-18T14:28:55.784Z,2.27
2023-02-18T14:31:32.511Z,2.47
2023-02-18T14:34:33.990Z,1.97
2023-02-18T14:37:14.144Z,1.37
2023-02-18T14:39:55.544Z,1.60
2023-02-18T14:42:37.107Z,1.73
2023-02-18T14:45:16.773Z,1.67
2023-02-18T14:48:17.076Z,1.90
2023-02-18T14:50:50.109Z,1.87
2023-02-18T14:53:22.287Z,1.67
2023-02-18T14:55:55.022Z,2.10
2023-02-18T14:58:31.300Z,2.00
2023-02-18T15:00:59.620Z,2.23
2023-02-18T15:03:29.869Z,2.50
2023-02-18T15:05:57.758Z,2.37
2023-02-18T15:08:27.263Z,2.10
2023-02-18T15:11:00.818Z,2.80
2023-02-18T15:13:31.577Z,2.30
2023-02-18T15:16:02.886Z,2.53
2023-02-18T15:18:35.061Z,2.30
2023-02-18T15:21:03.842Z,2.30
2023-02-18T15:23:32.990Z,2.13
2023-02-18T15:26:02.389Z,2.23
2023-02-18T15:28:32.966Z,2.00
2023-02-18T15:31:02.788Z,2.97
2023-02-18T15:33:31.195Z,2.13
2023-02-18T15:36:03.281Z,2.40
2023-02-18T15:38:32.155Z,1.60
2023-02-18T15:41:02.228Z,1.53
2023-02-18T15:43:31.177Z,1.50
2023-02-18T15:45:59.981Z,2.60
2023-02-18T15:48:33.883Z,1.53
2023-02-18T15:51:16.168Z,1.50
2023-02-18T15:53:49.030Z,1.67
2023-02-18T15:56:22.899Z,1.60
2023-02-18T15:58:50.992Z,2.37
2023-02-18T16:01:28.642Z,2.50
2023-02-18T16:03:58.003Z,1.60
2023-02-18T16:06:28.379Z,2.10
2023-02-18T16:09:01.602Z,2.50
2023-02-18T16:11:35.088Z,2.67
2023-02-18T16:14:03.435Z,1.60
2023-02-18T16:16:34.624Z,1.63
2023-02-18T16:19:03.498Z,1.70
2023-02-18T16:21:34.462Z,1.50
2023-02-18T16:24:04.553Z,2.43
2023-02-18T16:26:44.536Z,1.97
2023-02-18T16:29:15.065Z,2.40
2023-02-18T16:31:43.098Z,2.27
2023-02-18T16:34:11.027Z,2.17
2023-02-18T16:36:59.118Z,1.93
2023-02-18T16:39:27.636Z,2.50
2023-02-18T16:41:57.877Z,2.00
2023-02-18T16:44:25.944Z,2.23
2023-02-18T16:46:54.007Z,2.97
2023-02-18T16:49:24.897Z,2.87
2023-02-18T16:51:52.995Z,2.83
2023-02-18T16:54:20.876Z,2.57
2023-02-18T16:56:49.366Z,2.83
2023-02-18T16:59:18.637Z,2.10
2023-02-18T17:01:47.061Z,2.67
2023-02-18T17:04:17.388Z,2.47
2023-02-18T17:06:46.452Z,3.00
2023-02-18T17:09:17.014Z,2.30
2023-02-18T17:11:46.074Z,3.97
2023-02-18T17:14:18.072Z,3.13
2023-02-18T17:16:48.269Z,3.07
2023-02-18T17:19:17.141Z,3.33
2023-02-18T17:21:50.127Z,2.83
2023-02-18T17:24:19.993Z,2.70
2023-02-18T17:26:48.027Z,2.60
2023-02-18T17:29:15.868Z,3.00
2023-02-18T17:34:32.704Z,3.83
2023-02-18T17:37:00.816Z,3.17
2023-02-18T17:39:31.323Z,3.03
2023-02-18T17:41:59.205Z,3.30
2023-02-18T17:44:29.176Z,3.20
2023-02-18T17:46:58.612Z,3.63
2023-02-18T17:49:26.451Z,4.07
2023-02-18T17:51:55.855Z,4.43
2023-02-18T17:54:26.104Z,4.70
2023-02-18T17:56:56.004Z,4.77
2023-02-18T17:59:24.188Z,5.70
2023-02-18T18:01:52.331Z,5.60
2023-02-18T18:04:21.832Z,6.00
2023-02-18T18:06:49.993Z,6.60
2023-02-18T18:09:17.999Z,7.87
2023-02-18T18:11:45.908Z,7.07
2023-02-18T18:14:15.215Z,8.23
2023-02-18T18:16:43.228Z,7.60
2023-02-18T18:19:11.136Z,9.23
2023-02-18T18:21:40.366Z,8.17
2023-02-18T18:24:09.566Z,7.40
2023-02-18T18:26:37.497Z,7.07
2023-02-18T18:29:05.508Z,7.93
2023-02-18T18:31:33.597Z,9.80
2023-02-18T18:34:02.952Z,7.93
2023-02-18T18:36:30.856Z,8.63
2023-02-18T18:39:00.234Z,10.37
2023-02-18T18:41:28.116Z,10.77
2023-02-18T18:43:56.051Z,11.23
2023-02-18T18:46:23.993Z,12.33
2023-02-18T18:48:52.826Z,11.23
2023-02-18T18:51:26.985Z,12.33
2023-02-18T18:53:55.102Z,12.40
2023-02-18T18:56:27.412Z,13.27
2023-02-18T18:58:55.612Z,12.43
2023-02-18T19:01:27.139Z,13.40
2023-02-18T19:03:55.439Z,13.00
2023-02-18T19:06:23.452Z,14.60
2023-02-18T19:08:51.389Z,13.83
2023-02-18T19:11:19.368Z,14.13
2023-02-18T19:13:48.608Z,14.40
2023-02-18T19:16:20.205Z,15.00
2023-02-18T19:18:48.884Z,14.33
2023-02-18T19:21:16.794Z,14.63
2023-02-18T19:23:45.066Z,14.60
2023-02-18T19:26:15.777Z,13.47
2023-02-18T19:28:44.512Z,13.30
2023-02-18T19:31:16.834Z,14.23
2023-02-18T19:33:47.063Z,13.97
2023-02-18T19:36:16.828Z,13.47
2023-02-18T19:38:48.658Z,14.63
2023-02-18T19:41:18.122Z,14.73
2023-02-18T19:43:47.118Z,13.57
2023-02-18T19:46:18.486Z,14.60
2023-02-18T19:48:50.670Z,14.27
2023-02-18T19:51:19.551Z,14.87
2023-02-18T19:53:47.955Z,13.17
2023-02-18T19:56:20.499Z,14.33
2023-02-18T19:58:48.820Z,14.67
2023-02-18T20:01:19.465Z,14.20
2023-02-18T20:03:47.681Z,14.07
2023-02-18T20:06:16.874Z,14.33
2023-02-18T20:08:45.015Z,14.60
2023-02-18T20:11:13.053Z,14.37
2023-02-18T20:13:41.697Z,14.70
2023-02-18T20:16:11.020Z,14.67
2023-02-18T20:18:40.605Z,12.77
2023-02-18T20:21:12.912Z,12.40
2023-02-18T20:23:41.153Z,12.80
2023-02-18T20:26:09.460Z,10.90
2023-02-18T20:28:37.606Z,10.30
2023-02-18T20:31:07.126Z,11.40
2023-02-18T20:33:35.353Z,10.60
2023-02-18T20:36:14.403Z,10.53
2023-02-18T20:38:42.663Z,10.50
2023-02-18T20:41:19.823Z,10.73
2023-02-18T20:43:52.420Z,11.03
2023-02-18T20:46:24.676Z,10.27
2023-02-18T20:48:53.266Z,9.70
2023-02-18T20:51:23.984Z,8.93
2023-02-18T20:54:40.311Z,10.30
2023-02-18T20:57:14.575Z,8.80
2023-02-18T20:59:43.742Z,9.47
2023-02-18T21:02:16.730Z,9.60
2023-02-18T21:04:45.210Z,8.70
2023-02-18T21:07:14.516Z,9.33
2023-02-18T21:09:45.214Z,7.57
2023-02-18T21:12:13.474Z,8.13
2023-02-18T21:14:41.589Z,8.03
2023-02-18T21:17:09.752Z,8.70
2023-02-18T21:19:38.046Z,6.50
2023-02-18T21:22:05.884Z,6.87
2023-02-18T21:24:36.839Z,6.70
2023-02-18T21:27:09.530Z,6.67
2023-02-18T21:29:37.455Z,7.30
2023-02-18T21:32:14.051Z,7.10
2023-02-18T21:34:42.587Z,6.20
2023-02-18T21:37:50.628Z,6.93
2023-02-18T21:40:36.350Z,7.47
2023-02-18T21:43:48.252Z,7.17
2023-02-18T21:47:09.874Z,9.27
2023-02-18T21:49:37.783Z,8.00
2023-02-18T21:52:32.458Z,8.33
2023-02-18T21:58:13.665Z,6.63
2023-02-18T22:00:41.908Z,6.70
2023-02-18T22:03:12.779Z,6.63
2023-02-18T22:05:41.236Z,6.53
2023-02-18T22:08:09.299Z,6.37
2023-02-18T22:10:58.982Z,6.10
2023-02-18T22:13:41.760Z,7.40
2023-02-18T22:16:10.023Z,6.63
2023-02-18T22:18:37.877Z,8.20
2023-02-18T22:21:08.765Z,7.40
2023-02-18T22:23:37.252Z,8.37
2023-02-18T22:26:06.531Z,9.90
2023-02-18T22:28:36.481Z,7.73
2023-02-18T22:31:07.788Z,9.00
2023-02-18T22:33:37.084Z,7.57
2023-02-18T22:36:07.325Z,7.13
2023-02-18T22:38:36.561Z,7.87
2023-02-18T22:41:05.888Z,7.60
2023-02-18T22:43:35.436Z,7.67
2023-02-18T22:46:04.208Z,8.73
2023-02-18T22:48:33.352Z,8.07
2023-02-18T22:51:10.539Z,9.63
2023-02-18T22:53:39.280Z,9.37
2023-02-18T22:56:09.430Z,9.10
2023-02-18T22:58:39.243Z,8.93
2023-02-18T23:01:08.370Z,10.90
2023-02-18T23:03:36.705Z,9.67
2023-02-18T23:06:05.892Z,11.10
2023-02-18T23:08:34.690Z,8.70
2023-02-18T23:11:03.219Z,7.87
2023-02-18T23:13:31.290Z,9.47
2023-02-18T23:16:01.823Z,7.33
2023-02-18T23:18:33.023Z,10.53
2023-02-18T23:21:21.912Z,8.87
2023-02-18T23:23:55.053Z,10.30
2023-02-18T23:26:26.785Z,9.57
2023-02-18T23:28:54.936Z,8.83
2023-02-18T23:31:29.169Z,7.40
2023-02-18T23:33:59.169Z,6.80
2023-02-18T23:36:46.763Z,8.87
2023-02-18T23:39:37.607Z,8.03
2023-02-18T23:42:24.976Z,10.17
2023-02-18T23:44:56.917Z,11.00
2023-02-18T23:47:26.109Z,7.70
2023-02-18T23:49:57.968Z,7.83
2023-02-18T23:52:26.015Z,9.50
2023-02-18T23:54:54.434Z,9.77
2023-02-18T23:57:23.980Z,9.73
2023-02-18T23:59:52.083Z,7.23
